sensor_id;sensor_type;location;lat;lon;timestamp;pressure;altitude;pressure_sealevel;temperature;humidity
68634;BME280;55625;47.072;22.192;2023-11-21T00:00:32;99271.47;;;7.58;100.00
68634;BME280;55625;47.072;22.192;2023-11-21T00:02:58;99278.22;;;7.48;100.00
68634;BME280;55625;47.072;22.192;2023-11-21T00:05:23;99278.41;;;7.41;100.00
68634;BME280;55625;47.072;22.192;2023-11-21T00:07:49;99283.34;;;7.37;100.00
68634;BME280;55625;47.072;22.192;2023-11-21T00:10:15;99285.75;;;7.38;100.00
68634;BME280;55625;47.072;22.192;2023-11-21T00:12:41;99286.00;;;7.28;100.00
68634;BME280;55625;47.072;22.192;2023-11-21T00:15:09;99286.19;;;7.21;100.00
68634;BME280;55625;47.072;22.192;2023-11-21T00:17:40;99288.31;;;7.16;100.00
68634;BME280;55625;47.072;22.192;2023-11-21T00:20:06;99281.25;;;7.08;100.00
68634;BME280;55625;47.072;22.192;2023-11-21T00:22:36;99284.16;;;7.05;100.00
68634;BME280;55625;47.072;22.192;2023-11-21T00:25:02;99284.16;;;7.05;100.00
68634;BME280;55625;47.072;22.192;2023-11-21T00:27:30;99293.03;;;7.03;100.00
68634;BME280;55625;47.072;22.192;2023-11-21T00:29:55;99294.81;;;6.97;100.00
68634;BME280;55625;47.072;22.192;2023-11-21T00:32:21;99291.63;;;6.95;100.00
68634;BME280;55625;47.072;22.192;2023-11-21T00:34:47;99296.31;;;6.85;100.00
68634;BME280;55625;47.072;22.192;2023-11-21T00:37:14;99293.31;;;6.76;100.00
68634;BME280;55625;47.072;22.192;2023-11-21T00:39:40;99303.78;;;6.76;100.00
68634;BME280;55625;47.072;22.192;2023-11-21T00:42:06;99297.84;;;6.70;100.00
68634;BME280;55625;47.072;22.192;2023-11-21T00:44:32;99294.53;;;6.75;100.00
68634;BME280;55625;47.072;22.192;2023-11-21T00:46:59;99292.31;;;6.67;100.00
68634;BME280;55625;47.072;22.192;2023-11-21T00:49:25;99300.50;;;6.61;100.00
68634;BME280;55625;47.072;22.192;2023-11-21T00:51:51;99303.13;;;6.52;100.00
68634;BME280;55625;47.072;22.192;2023-11-21T00:54:17;99303.28;;;6.45;100.00
68634;BME280;55625;47.072;22.192;2023-11-21T00:56:43;99305.34;;;6.41;100.00
68634;BME280;55625;47.072;22.192;2023-11-21T00:59:09;99302.53;;;6.41;100.00
68634;BME280;55625;47.072;22.192;2023-11-21T01:01:36;99304.13;;;6.42;100.00
68634;BME280;55625;47.072;22.192;2023-11-21T01:04:03;99311.06;;;6.37;100.00
68634;BME280;55625;47.072;22.192;2023-11-21T01:06:29;99307.53;;;6.33;100.00
68634;BME280;55625;47.072;22.192;2023-11-21T01:08:55;99309.66;;;6.29;100.00
68634;BME280;55625;47.072;22.192;2023-11-21T01:11:21;99312.97;;;6.24;100.00
68634;BME280;55625;47.072;22.192;2023-11-21T01:13:47;99309.81;;;6.22;100.00
68634;BME280;55625;47.072;22.192;2023-11-21T01:16:13;99309.44;;;6.20;100.00
68634;BME280;55625;47.072;22.192;2023-11-21T01:18:39;99319.47;;;6.21;100.00
68634;BME280;55625;47.072;22.192;2023-11-21T01:21:05;99317.03;;;6.23;100.00
68634;BME280;55625;47.072;22.192;2023-11-21T01:23:31;99299.69;;;6.25;100.00
68634;BME280;55625;47.072;22.192;2023-11-21T01:25:57;99300.03;;;6.27;100.00
68634;BME280;55625;47.072;22.192;2023-11-21T01:28:23;99302.78;;;6.30;100.00
68634;BME280;55625;47.072;22.192;2023-11-21T01:30:49;99305.16;;;6.32;100.00
68634;BME280;55625;47.072;22.192;2023-11-21T01:33:15;99297.16;;;6.30;100.00
68634;BME280;55625;47.072;22.192;2023-11-21T01:35:42;99293.53;;;6.30;100.00
68634;BME280;55625;47.072;22.192;2023-11-21T01:38:08;99294.75;;;6.29;100.00
68634;BME280;55625;47.072;22.192;2023-11-21T01:40:35;99289.13;;;6.29;100.00
68634;BME280;55625;47.072;22.192;2023-11-21T01:43:01;99286.66;;;6.31;100.00
68634;BME280;55625;47.072;22.192;2023-11-21T01:45:30;99287.03;;;6.33;100.00
68634;BME280;55625;47.072;22.192;2023-11-21T01:48:00;99275.31;;;6.34;100.00
68634;BME280;55625;47.072;22.192;2023-11-21T01:50:26;99281.75;;;6.35;100.00
68634;BME280;55625;47.072;22.192;2023-11-21T01:52:52;99274.97;;;6.32;100.00
68634;BME280;55625;47.072;22.192;2023-11-21T01:55:18;99275.41;;;6.31;100.00
68634;BME280;55625;47.072;22.192;2023-11-21T01:57:46;99277.41;;;6.30;100.00
68634;BME280;55625;47.072;22.192;2023-11-21T02:00:13;99274.25;;;6.28;100.00
68634;BME280;55625;47.072;22.192;2023-11-21T02:02:46;99275.47;;;6.27;100.00
68634;BME280;55625;47.072;22.192;2023-11-21T02:05:17;99267.38;;;6.29;100.00
68634;BME280;55625;47.072;22.192;2023-11-21T02:07:44;99273.72;;;6.33;100.00
68634;BME280;55625;47.072;22.192;2023-11-21T02:10:11;99282.19;;;6.33;100.00
68634;BME280;55625;47.072;22.192;2023-11-21T02:12:44;99270.56;;;6.31;100.00
68634;BME280;55625;47.072;22.192;2023-11-21T02:15:14;99272.13;;;6.32;100.00
68634;BME280;55625;47.072;22.192;2023-11-21T02:17:47;99268.97;;;6.30;100.00
68634;BME280;55625;47.072;22.192;2023-11-21T02:20:13;99262.53;;;6.30;100.00
68634;BME280;55625;47.072;22.192;2023-11-21T02:22:53;99262.53;;;6.30;100.00
68634;BME280;55625;47.072;22.192;2023-11-21T02:25:28;99262.63;;;6.26;100.00
68634;BME280;55625;47.072;22.192;2023-11-21T02:27:56;99266.22;;;6.27;100.00
68634;BME280;55625;47.072;22.192;2023-11-21T02:30:22;99263.84;;;6.25;100.00
68634;BME280;55625;47.072;22.192;2023-11-21T02:32:50;99256.63;;;6.24;100.00
68634;BME280;55625;47.072;22.192;2023-11-21T02:35:19;99263.06;;;6.25;100.00
68634;BME280;55625;47.072;22.192;2023-11-21T02:37:47;99257.50;;;6.21;100.00
68634;BME280;55625;47.072;22.192;2023-11-21T02:40:14;99261.63;;;6.16;100.00
68634;BME280;55625;47.072;22.192;2023-11-21T02:42:44;99258.94;;;6.09;100.00
68634;BME280;55625;47.072;22.192;2023-11-21T02:45:10;99254.97;;;6.07;100.00
68634;BME280;55625;47.072;22.192;2023-11-21T02:47:40;99254.63;;;6.05;100.00
68634;BME280;55625;47.072;22.192;2023-11-21T02:50:07;99257.06;;;6.03;100.00
68634;BME280;55625;47.072;22.192;2023-11-21T02:52:36;99259.97;;;5.99;100.00
68634;BME280;55625;47.072;22.192;2023-11-21T02:55:03;99261.63;;;5.97;100.00
68634;BME280;55625;47.072;22.192;2023-11-21T02:57:29;99260.84;;;5.96;100.00
68634;BME280;55625;47.072;22.192;2023-11-21T02:59:55;99260.03;;;5.96;100.00
68634;BME280;55625;47.072;22.192;2023-11-21T03:02:21;99264.09;;;5.95;100.00
68634;BME280;55625;47.072;22.192;2023-11-21T03:04:47;99256.06;;;5.93;100.00
68634;BME280;55625;47.072;22.192;2023-11-21T03:07:17;99259.38;;;5.88;100.00
68634;BME280;55625;47.072;22.192;2023-11-21T03:09:45;99248.63;;;5.83;100.00
68634;BME280;55625;47.072;22.192;2023-11-21T03:12:11;99250.31;;;5.77;100.00
68634;BME280;55625;47.072;22.192;2023-11-21T03:14:41;99257.75;;;5.67;100.00
68634;BME280;55625;47.072;22.192;2023-11-21T03:17:07;99250.25;;;5.60;100.00
68634;BME280;55625;47.072;22.192;2023-11-21T03:19:33;99249.53;;;5.56;100.00
68634;BME280;55625;47.072;22.192;2023-11-21T03:21:59;99254.44;;;5.52;100.00
68634;BME280;55625;47.072;22.192;2023-11-21T03:24:25;99257.66;;;5.51;100.00
68634;BME280;55625;47.072;22.192;2023-11-21T03:26:52;99261.34;;;5.48;100.00
68634;BME280;55625;47.072;22.192;2023-11-21T03:29:18;99263.06;;;5.42;100.00
68634;BME280;55625;47.072;22.192;2023-11-21T03:31:44;99250.72;;;5.36;100.00
68634;BME280;55625;47.072;22.192;2023-11-21T03:34:24;99260.47;;;5.31;100.00
68634;BME280;55625;47.072;22.192;2023-11-21T03:36:51;99266.16;;;5.27;100.00
68634;BME280;55625;47.072;22.192;2023-11-21T03:39:17;99259.78;;;5.23;100.00
68634;BME280;55625;47.072;22.192;2023-11-21T03:41:43;99253.91;;;5.14;100.00
68634;BME280;55625;47.072;22.192;2023-11-21T03:44:09;99261.19;;;5.12;100.00
68634;BME280;55625;47.072;22.192;2023-11-21T03:46:36;99245.09;;;5.12;100.00
68634;BME280;55625;47.072;22.192;2023-11-21T03:49:02;99248.72;;;5.13;100.00
68634;BME280;55625;47.072;22.192;2023-11-21T03:51:28;99249.56;;;5.10;100.00
68634;BME280;55625;47.072;22.192;2023-11-21T03:53:53;99266.88;;;5.08;100.00
68634;BME280;55625;47.072;22.192;2023-11-21T03:56:19;99270.97;;;5.04;100.00
68634;BME280;55625;47.072;22.192;2023-11-21T03:58:48;99259.78;;;5.00;100.00
68634;BME280;55625;47.072;22.192;2023-11-21T04:01:24;99264.25;;;4.97;100.00
68634;BME280;55625;47.072;22.192;2023-11-21T04:03:50;99268.28;;;4.96;100.00
68634;BME280;55625;47.072;22.192;2023-11-21T04:06:17;99269.56;;;4.92;100.00
68634;BME280;55625;47.072;22.192;2023-11-21T04:08:44;99266.78;;;4.88;100.00
68634;BME280;55625;47.072;22.192;2023-11-21T04:11:11;99266.84;;;4.85;100.00
68634;BME280;55625;47.072;22.192;2023-11-21T04:13:40;99257.31;;;4.79;100.00
68634;BME280;55625;47.072;22.192;2023-11-21T04:16:07;99251.38;;;4.73;100.00
68634;BME280;55625;47.072;22.192;2023-11-21T04:18:36;99256.69;;;4.67;100.00
68634;BME280;55625;47.072;22.192;2023-11-21T04:21:02;99256.81;;;4.60;100.00
68634;BME280;55625;47.072;22.192;2023-11-21T04:23:29;99264.13;;;4.54;100.00
68634;BME280;55625;47.072;22.192;2023-11-21T04:25:55;99261.72;;;4.53;100.00
68634;BME280;55625;47.072;22.192;2023-11-21T04:28:23;99257.75;;;4.50;100.00
68634;BME280;55625;47.072;22.192;2023-11-21T04:30:50;99237.72;;;4.48;100.00
68634;BME280;55625;47.072;22.192;2023-11-21T04:33:16;99244.56;;;4.47;100.00
68634;BME280;55625;47.072;22.192;2023-11-21T04:35:42;99235.81;;;4.42;100.00
68634;BME280;55625;47.072;22.192;2023-11-21T04:38:08;99237.47;;;4.39;100.00
68634;BME280;55625;47.072;22.192;2023-11-21T04:40:34;99233.91;;;4.35;100.00
68634;BME280;55625;47.072;22.192;2023-11-21T04:43:00;99231.53;;;4.33;100.00
68634;BME280;55625;47.072;22.192;2023-11-21T04:45:27;99236.72;;;4.35;100.00
68634;BME280;55625;47.072;22.192;2023-11-21T04:47:52;99234.72;;;4.35;100.00
68634;BME280;55625;47.072;22.192;2023-11-21T04:50:18;99237.53;;;4.35;100.00
68634;BME280;55625;47.072;22.192;2023-11-21T04:52:45;99242.34;;;4.35;100.00
68634;BME280;55625;47.072;22.192;2023-11-21T04:55:10;99229.50;;;4.34;100.00
68634;BME280;55625;47.072;22.192;2023-11-21T04:57:37;99236.34;;;4.33;100.00
68634;BME280;55625;47.072;22.192;2023-11-21T05:00:03;99225.56;;;4.28;100.00
68634;BME280;55625;47.072;22.192;2023-11-21T05:02:32;99230.81;;;4.26;100.00
68634;BME280;55625;47.072;22.192;2023-11-21T05:05:00;99230.81;;;4.26;100.00
68634;BME280;55625;47.072;22.192;2023-11-21T05:07:26;99236.44;;;4.26;100.00
68634;BME280;55625;47.072;22.192;2023-11-21T05:09:55;99234.84;;;4.25;100.00
68634;BME280;55625;47.072;22.192;2023-11-21T05:12:23;99235.63;;;4.25;100.00
68634;BME280;55625;47.072;22.192;2023-11-21T05:14:50;99237.28;;;4.23;100.00
68634;BME280;55625;47.072;22.192;2023-11-21T05:17:16;99236.06;;;4.24;100.00
68634;BME280;55625;47.072;22.192;2023-11-21T05:19:42;99237.66;;;4.25;100.00
68634;BME280;55625;47.072;22.192;2023-11-21T05:22:11;99243.25;;;4.25;100.00
68634;BME280;55625;47.072;22.192;2023-11-21T05:24:38;99242.81;;;4.30;100.00
68634;BME280;55625;47.072;22.192;2023-11-21T05:27:06;99237.16;;;4.33;100.00
68634;BME280;55625;47.072;22.192;2023-11-21T05:29:32;99247.16;;;4.34;100.00
68634;BME280;55625;47.072;22.192;2023-11-21T05:31:58;99249.19;;;4.34;100.00
68634;BME280;55625;47.072;22.192;2023-11-21T05:34:24;99247.22;;;4.31;100.00
68634;BME280;55625;47.072;22.192;2023-11-21T05:36:50;99255.22;;;4.32;100.00
68634;BME280;55625;47.072;22.192;2023-11-21T05:39:16;99255.66;;;4.31;100.00
68634;BME280;55625;47.072;22.192;2023-11-21T05:41:46;99262.47;;;4.30;100.00
68634;BME280;55625;47.072;22.192;2023-11-21T05:44:12;99264.06;;;4.31;100.00
68634;BME280;55625;47.072;22.192;2023-11-21T05:46:40;99263.69;;;4.29;100.00
68634;BME280;55625;47.072;22.192;2023-11-21T05:49:08;99255.28;;;4.29;100.00
68634;BME280;55625;47.072;22.192;2023-11-21T05:51:34;99260.84;;;4.32;100.00
68634;BME280;55625;47.072;22.192;2023-11-21T05:54:00;99265.59;;;4.35;100.00
68634;BME280;55625;47.072;22.192;2023-11-21T05:56:26;99267.63;;;4.35;100.00
68634;BME280;55625;47.072;22.192;2023-11-21T05:58:52;99274.03;;;4.35;100.00
68634;BME280;55625;47.072;22.192;2023-11-21T06:01:18;99278.00;;;4.38;100.00
68634;BME280;55625;47.072;22.192;2023-11-21T06:03:43;99278.00;;;4.38;100.00
68634;BME280;55625;47.072;22.192;2023-11-21T06:06:09;99279.19;;;4.41;100.00
68634;BME280;55625;47.072;22.192;2023-11-21T06:08:35;99280.34;;;4.43;100.00
68634;BME280;55625;47.072;22.192;2023-11-21T06:11:01;99275.88;;;4.46;100.00
68634;BME280;55625;47.072;22.192;2023-11-21T06:13:27;99280.22;;;4.50;100.00
68634;BME280;55625;47.072;22.192;2023-11-21T06:15:53;99276.56;;;4.53;100.00
68634;BME280;55625;47.072;22.192;2023-11-21T06:18:19;99275.72;;;4.56;100.00
68634;BME280;55625;47.072;22.192;2023-11-21T06:20:48;99282.94;;;4.57;100.00
68634;BME280;55625;47.072;22.192;2023-11-21T06:23:14;99286.94;;;4.60;100.00
68634;BME280;55625;47.072;22.192;2023-11-21T06:25:39;99290.53;;;4.60;100.00
68634;BME280;55625;47.072;22.192;2023-11-21T06:28:06;99275.63;;;4.63;100.00
68634;BME280;55625;47.072;22.192;2023-11-21T06:30:31;99284.00;;;4.67;100.00
68634;BME280;55625;47.072;22.192;2023-11-21T06:32:57;99290.38;;;4.71;100.00
68634;BME280;55625;47.072;22.192;2023-11-21T06:35:25;99285.06;;;4.77;100.00
68634;BME280;55625;47.072;22.192;2023-11-21T06:37:53;99283.78;;;4.81;100.00
68634;BME280;55625;47.072;22.192;2023-11-21T06:40:19;99286.47;;;4.88;100.00
68634;BME280;55625;47.072;22.192;2023-11-21T06:42:45;99286.81;;;4.94;100.00
68634;BME280;55625;47.072;22.192;2023-11-21T06:45:12;99286.69;;;5.01;100.00
68634;BME280;55625;47.072;22.192;2023-11-21T06:47:38;99282.91;;;5.11;100.00
68634;BME280;55625;47.072;22.192;2023-11-21T06:50:05;99285.53;;;5.22;100.00
68634;BME280;55625;47.072;22.192;2023-11-21T06:52:32;99288.94;;;5.33;100.00
68634;BME280;55625;47.072;22.192;2023-11-21T06:54:58;99295.25;;;5.41;100.00
68634;BME280;55625;47.072;22.192;2023-11-21T06:57:24;99290.63;;;5.50;100.00
68634;BME280;55625;47.072;22.192;2023-11-21T06:59:50;99284.09;;;5.57;100.00
68634;BME280;55625;47.072;22.192;2023-11-21T07:02:16;99283.97;;;5.64;100.00
68634;BME280;55625;47.072;22.192;2023-11-21T07:04:45;99276.97;;;5.72;100.00
68634;BME280;55625;47.072;22.192;2023-11-21T07:07:12;99279.63;;;5.79;100.00
68634;BME280;55625;47.072;22.192;2023-11-21T07:09:38;99273.88;;;5.86;100.00
68634;BME280;55625;47.072;22.192;2023-11-21T07:12:05;99276.59;;;5.94;100.00
68634;BME280;55625;47.072;22.192;2023-11-21T07:14:34;99272.03;;;6.00;100.00
68634;BME280;55625;47.072;22.192;2023-11-21T07:17:00;99276.28;;;6.08;100.00
68634;BME280;55625;47.072;22.192;2023-11-21T07:19:26;99280.13;;;6.17;100.00
68634;BME280;55625;47.072;22.192;2023-11-21T07:21:52;99293.19;;;6.28;100.00
68634;BME280;55625;47.072;22.192;2023-11-21T07:24:18;99291.06;;;6.32;100.00
68634;BME280;55625;47.072;22.192;2023-11-21T07:26:44;99294.53;;;6.39;100.00
68634;BME280;55625;47.072;22.192;2023-11-21T07:29:10;99283.91;;;6.47;100.00
68634;BME280;55625;47.072;22.192;2023-11-21T07:31:37;99288.94;;;6.56;100.00
68634;BME280;55625;47.072;22.192;2023-11-21T07:34:04;99293.53;;;6.66;100.00
68634;BME280;55625;47.072;22.192;2023-11-21T07:36:29;99288.09;;;6.75;100.00
68634;BME280;55625;47.072;22.192;2023-11-21T07:38:55;99292.34;;;6.83;100.00
68634;BME280;55625;47.072;22.192;2023-11-21T07:41:21;99300.53;;;6.94;100.00
68634;BME280;55625;47.072;22.192;2023-11-21T07:43:47;99294.66;;;7.04;100.00
68634;BME280;55625;47.072;22.192;2023-11-21T07:46:14;99302.06;;;7.14;100.00
68634;BME280;55625;47.072;22.192;2023-11-21T07:48:41;99299.75;;;7.26;100.00
68634;BME280;55625;47.072;22.192;2023-11-21T07:51:08;99297.13;;;7.35;100.00
68634;BME280;55625;47.072;22.192;2023-11-21T07:53:36;99298.53;;;7.43;100.00
68634;BME280;55625;47.072;22.192;2023-11-21T07:56:07;99296.28;;;7.51;100.00
68634;BME280;55625;47.072;22.192;2023-11-21T07:58:33;99302.88;;;7.60;100.00
68634;BME280;55625;47.072;22.192;2023-11-21T08:01:00;99299.00;;;7.70;100.00
68634;BME280;55625;47.072;22.192;2023-11-21T08:03:26;99302.78;;;7.80;100.00
68634;BME280;55625;47.072;22.192;2023-11-21T08:06:01;99298.84;;;7.90;100.00
68634;BME280;55625;47.072;22.192;2023-11-21T08:08:28;99296.53;;;8.01;100.00
68634;BME280;55625;47.072;22.192;2023-11-21T08:10:54;99300.63;;;8.13;100.00
68634;BME280;55625;47.072;22.192;2023-11-21T08:13:25;99301.81;;;8.28;100.00
68634;BME280;55625;47.072;22.192;2023-11-21T08:15:53;99298.47;;;8.46;100.00
68634;BME280;55625;47.072;22.192;2023-11-21T08:18:20;99292.63;;;8.66;100.00
68634;BME280;55625;47.072;22.192;2023-11-21T08:20:46;99303.06;;;8.94;100.00
68634;BME280;55625;47.072;22.192;2023-11-21T08:23:16;99299.97;;;9.27;100.00
68634;BME280;55625;47.072;22.192;2023-11-21T08:25:44;99309.63;;;9.64;100.00
68634;BME280;55625;47.072;22.192;2023-11-21T08:28:10;99305.03;;;9.92;100.00
68634;BME280;55625;47.072;22.192;2023-11-21T08:30:35;99306.63;;;10.15;100.00
68634;BME280;55625;47.072;22.192;2023-11-21T08:33:01;99299.19;;;10.52;100.00
68634;BME280;55625;47.072;22.192;2023-11-21T08:35:29;99292.41;;;10.80;100.00
68634;BME280;55625;47.072;22.192;2023-11-21T08:37:55;99301.75;;;10.90;97.36
68634;BME280;55625;47.072;22.192;2023-11-21T08:40:21;99306.88;;;11.04;95.65
68634;BME280;55625;47.072;22.192;2023-11-21T08:42:48;99309.59;;;11.17;95.84
68634;BME280;55625;47.072;22.192;2023-11-21T08:45:17;99313.56;;;11.29;92.88
68634;BME280;55625;47.072;22.192;2023-11-21T08:47:43;99308.19;;;11.31;94.71
68634;BME280;55625;47.072;22.192;2023-11-21T08:50:10;99309.38;;;11.51;93.90
68634;BME280;55625;47.072;22.192;2023-11-21T08:52:38;99304.69;;;11.76;92.02
68634;BME280;55625;47.072;22.192;2023-11-21T08:55:07;99304.69;;;11.76;90.31
68634;BME280;55625;47.072;22.192;2023-11-21T08:57:39;99306.59;;;11.88;89.71
68634;BME280;55625;47.072;22.192;2023-11-21T09:00:11;99299.66;;;11.80;89.62
68634;BME280;55625;47.072;22.192;2023-11-21T09:02:39;99293.97;;;11.89;89.85
68634;BME280;55625;47.072;22.192;2023-11-21T09:05:08;99298.69;;;11.83;88.37
68634;BME280;55625;47.072;22.192;2023-11-21T09:07:39;99294.47;;;11.97;89.37
68634;BME280;55625;47.072;22.192;2023-11-21T09:10:06;99292.88;;;11.96;88.20
68634;BME280;55625;47.072;22.192;2023-11-21T09:12:35;99295.34;;;11.75;88.32
68634;BME280;55625;47.072;22.192;2023-11-21T09:15:04;99291.13;;;11.80;89.67
68634;BME280;55625;47.072;22.192;2023-11-21T09:17:32;99299.97;;;11.82;89.84
68634;BME280;55625;47.072;22.192;2023-11-21T09:19:57;99286.38;;;11.86;90.04
68634;BME280;55625;47.072;22.192;2023-11-21T09:22:23;99293.19;;;11.98;92.50
68634;BME280;55625;47.072;22.192;2023-11-21T09:24:55;99292.22;;;12.19;90.61
68634;BME280;55625;47.072;22.192;2023-11-21T09:27:23;99284.66;;;12.25;88.71
68634;BME280;55625;47.072;22.192;2023-11-21T09:29:49;99280.38;;;12.11;88.86
68634;BME280;55625;47.072;22.192;2023-11-21T09:32:17;99275.16;;;12.19;90.13
68634;BME280;55625;47.072;22.192;2023-11-21T09:34:44;99274.19;;;12.22;87.81
68634;BME280;55625;47.072;22.192;2023-11-21T09:37:10;99280.69;;;12.13;88.62
68634;BME280;55625;47.072;22.192;2023-11-21T09:39:36;99280.22;;;12.15;89.90
68634;BME280;55625;47.072;22.192;2023-11-21T09:42:12;99270.09;;;12.14;89.74
68634;BME280;55625;47.072;22.192;2023-11-21T09:45:46;99282.25;;;12.24;89.65
68634;BME280;55625;47.072;22.192;2023-11-21T09:47:55;99269.47;;;12.10;87.87
68634;BME280;55625;47.072;22.192;2023-11-21T09:50:22;99265.06;;;12.09;88.86
68634;BME280;55625;47.072;22.192;2023-11-21T09:55:18;99272.47;;;12.06;88.75
68634;BME280;55625;47.072;22.192;2023-11-21T09:57:47;99255.75;;;11.99;90.24
68634;BME280;55625;47.072;22.192;2023-11-21T10:00:16;99255.91;;;12.05;90.32
68634;BME280;55625;47.072;22.192;2023-11-21T10:02:45;99253.84;;;12.05;90.20
68634;BME280;55625;47.072;22.192;2023-11-21T10:05:12;99243.53;;;12.17;89.42
68634;BME280;55625;47.072;22.192;2023-11-21T10:07:39;99245.44;;;12.29;90.57
68634;BME280;55625;47.072;22.192;2023-11-21T10:10:08;99245.72;;;12.40;89.89
68634;BME280;55625;47.072;22.192;2023-11-21T10:12:35;99251.09;;;12.38;88.72
68634;BME280;55625;47.072;22.192;2023-11-21T10:15:03;99241.94;;;12.34;86.98
68634;BME280;55625;47.072;22.192;2023-11-21T10:17:36;99244.34;;;12.27;85.57
68634;BME280;55625;47.072;22.192;2023-11-21T10:20:11;99247.81;;;12.31;84.28
68634;BME280;55625;47.072;22.192;2023-11-21T10:22:41;99250.66;;;12.31;85.52
68634;BME280;55625;47.072;22.192;2023-11-21T10:25:09;99254.75;;;12.39;84.15
68634;BME280;55625;47.072;22.192;2023-11-21T10:27:38;99244.31;;;12.36;84.26
68634;BME280;55625;47.072;22.192;2023-11-21T10:30:06;99249.41;;;12.13;84.87
68634;BME280;55625;47.072;22.192;2023-11-21T10:32:39;99254.63;;;12.06;86.46
68634;BME280;55625;47.072;22.192;2023-11-21T10:35:10;99250.06;;;11.99;86.68
68634;BME280;55625;47.072;22.192;2023-11-21T10:37:39;99247.69;;;11.79;86.32
68634;BME280;55625;47.072;22.192;2023-11-21T10:40:10;99238.81;;;11.68;86.56
68634;BME280;55625;47.072;22.192;2023-11-21T10:42:40;99234.88;;;11.66;86.57
68634;BME280;55625;47.072;22.192;2023-11-21T10:45:07;99236.13;;;11.65;87.04
68634;BME280;55625;47.072;22.192;2023-11-21T10:47:41;99238.97;;;11.74;86.84
68634;BME280;55625;47.072;22.192;2023-11-21T10:50:07;99244.38;;;11.81;87.89
68634;BME280;55625;47.072;22.192;2023-11-21T10:52:40;99234.72;;;11.88;86.39
68634;BME280;55625;47.072;22.192;2023-11-21T10:55:19;99235.53;;;11.97;86.24
68634;BME280;55625;47.072;22.192;2023-11-21T10:57:53;99234.75;;;11.97;87.13
68634;BME280;55625;47.072;22.192;2023-11-21T11:00:20;99232.53;;;12.01;86.11
68634;BME280;55625;47.072;22.192;2023-11-21T11:02:52;99240.22;;;12.19;85.58
68634;BME280;55625;47.072;22.192;2023-11-21T11:05:20;99243.69;;;12.32;83.66
68634;BME280;55625;47.072;22.192;2023-11-21T11:08:08;99240.38;;;12.24;84.87
68634;BME280;55625;47.072;22.192;2023-11-21T11:10:34;99242.28;;;12.18;84.97
68634;BME280;55625;47.072;22.192;2023-11-21T11:13:00;99237.09;;;12.07;85.58
68634;BME280;55625;47.072;22.192;2023-11-21T11:15:28;99232.03;;;11.93;85.61
68634;BME280;55625;47.072;22.192;2023-11-21T11:17:54;99232.66;;;11.88;85.97
68634;BME280;55625;47.072;22.192;2023-11-21T11:20:31;99233.78;;;11.81;86.17
68634;BME280;55625;47.072;22.192;2023-11-21T11:28:19;99225.72;;;11.89;85.97
68634;BME280;55625;47.072;22.192;2023-11-21T11:31:21;99222.56;;;11.78;86.23
68634;BME280;55625;47.072;22.192;2023-11-21T11:34:01;99231.41;;;11.80;85.28
68634;BME280;55625;47.072;22.192;2023-11-21T11:36:56;99222.41;;;11.91;81.27
68634;BME280;55625;47.072;22.192;2023-11-21T11:39:39;99226.34;;;11.75;83.09
68634;BME280;55625;47.072;22.192;2023-11-21T11:42:12;99215.59;;;11.70;84.64
68634;BME280;55625;47.072;22.192;2023-11-21T11:47:28;99210.38;;;11.59;86.47
68634;BME280;55625;47.072;22.192;2023-11-21T11:52:50;99207.50;;;11.23;88.86
68634;BME280;55625;47.072;22.192;2023-11-21T11:55:23;99211.75;;;11.09;90.60
68634;BME280;55625;47.072;22.192;2023-11-21T11:57:51;99207.81;;;11.06;91.25
68634;BME280;55625;47.072;22.192;2023-11-21T12:03:01;99210.00;;;11.11;90.86
68634;BME280;55625;47.072;22.192;2023-11-21T12:05:32;99211.91;;;11.05;91.11
68634;BME280;55625;47.072;22.192;2023-11-21T12:08:03;99206.00;;;10.91;91.74
68634;BME280;55625;47.072;22.192;2023-11-21T12:10:31;99204.75;;;10.92;91.20
68634;BME280;55625;47.072;22.192;2023-11-21T12:13:09;99202.84;;;10.88;90.92
68634;BME280;55625;47.072;22.192;2023-11-21T12:15:38;99220.03;;;10.85;91.13
68634;BME280;55625;47.072;22.192;2023-11-21T12:18:06;99217.50;;;10.78;91.83
68634;BME280;55625;47.072;22.192;2023-11-21T12:20:33;99225.16;;;10.68;92.78
68634;BME280;55625;47.072;22.192;2023-11-21T12:23:04;99225.13;;;10.59;94.66
68634;BME280;55625;47.072;22.192;2023-11-21T12:25:32;99215.03;;;10.58;95.13
68634;BME280;55625;47.072;22.192;2023-11-21T12:27:59;99208.41;;;10.52;95.22
68634;BME280;55625;47.072;22.192;2023-11-21T12:30:28;99213.28;;;10.51;94.52
68634;BME280;55625;47.072;22.192;2023-11-21T12:32:58;99210.25;;;10.46;94.52
68634;BME280;55625;47.072;22.192;2023-11-21T12:35:29;99212.78;;;10.44;94.06
68634;BME280;55625;47.072;22.192;2023-11-21T12:37:56;99210.06;;;10.40;94.22
68634;BME280;55625;47.072;22.192;2023-11-21T12:40:25;99204.06;;;10.38;95.00
68634;BME280;55625;47.072;22.192;2023-11-21T12:42:57;99204.84;;;10.39;95.16
68634;BME280;55625;47.072;22.192;2023-11-21T12:45:29;99203.59;;;10.40;95.26
68634;BME280;55625;47.072;22.192;2023-11-21T12:48:00;99201.53;;;10.40;94.85
68634;BME280;55625;47.072;22.192;2023-11-21T12:50:30;99207.22;;;10.40;95.06
68634;BME280;55625;47.072;22.192;2023-11-21T12:55:32;99199.13;;;10.30;95.48
68634;BME280;55625;47.072;22.192;2023-11-21T12:58:01;99199.59;;;10.28;95.91
68634;BME280;55625;47.072;22.192;2023-11-21T13:00:40;99204.94;;;10.26;96.94
68634;BME280;55625;47.072;22.192;2023-11-21T13:03:10;99199.75;;;10.24;96.75
68634;BME280;55625;47.072;22.192;2023-11-21T13:05:39;99203.84;;;10.23;96.95
68634;BME280;55625;47.072;22.192;2023-11-21T13:08:08;99205.41;;;10.24;97.04
68634;BME280;55625;47.072;22.192;2023-11-21T13:10:40;99204.75;;;10.20;97.35
68634;BME280;55625;47.072;22.192;2023-11-21T13:13:10;99200.31;;;10.19;97.27